メインページ
METAR-TAF:

METAR-TAF

空港 :

フィリップス・S・W・ゴールドソン国際空港

ベリーズシティ, ベリーズ

緯度: 17-32N, 経度: 088-18W, 海抜: 5m

現時点の気象観測

当レポートは28分前の19:00(UTC)に作成
東/北東の風 5kt
気温 32°C
湿度 67%
気圧 1010 hPa
視程10km以上
高度2400ftの千切れ雲あり

METAR: MZBZ 181900Z 07005KT 9999 BKN024 32/25 A2983 Q1010 NOSIG RMK DIST CBTOP-NW/DIST TCU-NW/SW

時間: 13:28 (19:28 UTC)

予報

当レポートは4時間13分前の15:15(UTC)に作成
予報は18日の 18時(UTC)から 19日の 18時(UTC)まで有効
の風 7kt
視程10km以上
高度2300ftの雲はほとんどない
19日の 08時(UTC)から 19日の 10時(UTC)まで徐々に
西の風 5kt

TAF: MZBZ 181515Z 1818/1918 08007KT 9999 FEW023 BECMG 1908/1910 27005KT

4,000以上の空港の気象観測と天気予報(METAR報とTAF報)

利用可能な観測所は地図上に黄色い丸と赤い丸で示す。

丸の上にカーソルを重ねると観測所名を参照できる。

次にクリックすると気象観測と天気予報を参照できる。

マップの切り替え:黒色「×」印の緑ボタンをクリックして拡大、「-」印の緑ボタンをクリックして縮小、緑色の三角印をクリックして隣りの地図に切り替え


METAR-TAF: